Grand Bahama International Airport
MYGF : now visible

Airfield :











YOU CAN JOIN US ON...

 
LOGIN :

Register | Disclaimer

   EN    FR    IT 

 









Legend :    VFR   Marginal VFR   IFR   Intensive IFR   Very Intensive IFR
Visi :
Ceiling :
>= 8 km
>= 3000ft
5 to 8 km
1000 to 3000 ft
1500m to 5 km
500 to 1000 ft
800 to 1500m
200 to 500 ft
< 800m
< 200 ft
Symbols :   Thunderstorms  Fog  Heavy snow  Heavy precipitations  Wind > 20 kt






- Airport Elevation : 7 ft
- IATA code : FPO


MYGF - Grand Bahama International

CURRENT METAR :
  • 151300Z 08004KT 9999 VCSH FEW018TCU SCT020 30/25 A3010

EXPIRED METARs :
  • 151200Z 05003KT 9999 FEW018 28/25 A3010
  • 151100Z VRB02KT 9999 FEW018 26/24 A3008
  • 151000Z AUTO 14002KT //// R06///// // FEW020/// 26/24 A3006
  • 150900Z AUTO 11003KT //// R06///// // FEW017/// 27/25 A3006

TAF TAF MYGF
Valid from the 15 at 12:00 until the 16 at 12:00 UTC


151100Z 1512/1612 13008KT 9999 FEW018TCU
PROB30
TEMPO 1515/1521 -SHRA FEW015CB SCT025
BECMG 1602/1604 14005KT
MYNA FIR / North America



MET'MAP, your aeronautical weather chart ! - Copyright ORBIFLY December 2007 - Disclaimer

ORBIFLY MET'MAP TEAM :

Programming & Development : Alexandra Zaïnal
Original concept : Baudouin d'Aumeries
Technical & hardware support : Manuel Goepfert
Assistance : Marc-Olivier Méhu




SOURCES & CREDITS :

   NOAA       Earth
Advisory